createdAt,value
2023-01-20T09:53:18.398Z,31.83
2023-01-20T09:56:56.084Z,31.78
2023-01-20T10:00:05.034Z,31.69
2023-01-20T10:03:33.698Z,31.70
2023-01-20T10:07:02.389Z,31.56
2023-01-20T10:10:35.683Z,31.47
2023-01-20T10:14:13.308Z,31.39
2023-01-20T10:17:22.186Z,31.31
2023-01-20T10:20:24.122Z,31.17
2023-01-20T10:23:56.191Z,31.07
2023-01-20T10:27:11.321Z,30.99
2023-01-20T10:30:40.201Z,30.86
2023-01-20T10:34:11.782Z,30.87
2023-01-20T10:37:40.390Z,30.71
2023-01-20T10:40:54.087Z,30.68
2023-01-20T10:43:23.786Z,30.54
2023-01-20T10:46:41.459Z,30.62
2023-01-20T10:50:08.549Z,30.56
2023-01-20T10:53:20.075Z,30.47
2023-01-20T10:56:14.267Z,30.37
2023-01-20T10:59:43.001Z,30.37
2023-01-20T11:02:35.456Z,30.39
2023-01-20T11:06:04.229Z,30.28
2023-01-20T11:09:32.873Z,30.06
2023-01-20T11:13:04.253Z,30.16
2023-01-20T11:16:32.884Z,30.09
2023-01-20T11:20:01.596Z,30.06
2023-01-20T11:23:30.306Z,30.04
2023-01-20T11:27:01.903Z,29.98
2023-01-20T11:30:27.270Z,29.71
2023-01-20T11:33:39.436Z,29.99
2023-01-20T11:37:08.221Z,29.74
2023-01-20T11:40:17.484Z,29.92
2023-01-20T11:43:46.285Z,29.94
2023-01-20T11:46:38.399Z,29.87
2023-01-20T11:49:56.387Z,29.88
2023-01-20T12:36:40.812Z,29.20
2023-01-20T12:39:28.672Z,29.22
2023-01-20T12:42:12.184Z,29.15
2023-01-20T12:44:50.056Z,29.29
2023-01-20T12:48:39.946Z,29.19
2023-01-20T12:52:00.883Z,29.20
2023-01-20T12:55:56.761Z,29.17
2023-01-20T12:59:16.992Z,29.16
2023-01-20T13:02:51.905Z,29.21
2023-01-20T13:05:46.924Z,29.22
2023-01-20T13:08:46.181Z,29.06
2023-01-20T13:11:32.994Z,28.99
2023-01-20T13:14:42.963Z,28.95
2023-01-20T13:17:28.315Z,28.90
2023-01-20T13:20:01.445Z,28.88
2023-01-20T13:22:32.144Z,28.87
2023-01-20T13:25:06.375Z,28.84
2023-01-20T13:27:39.399Z,28.85
2023-01-20T13:30:30.226Z,28.87
2023-01-20T13:33:08.892Z,28.83
2023-01-20T13:35:50.790Z,28.83
2023-01-20T13:38:26.366Z,28.79
2023-01-20T13:40:58.390Z,28.76
2023-01-20T13:43:38.179Z,28.73
2023-01-20T13:46:07.815Z,28.75
2023-01-20T13:49:34.903Z,28.69
2023-01-20T13:52:04.501Z,28.68
2023-01-20T13:55:36.102Z,28.64
2023-01-20T13:59:04.816Z,28.60
2023-01-20T14:02:33.515Z,28.55
2023-01-20T14:06:02.318Z,28.54
2023-01-20T14:08:42.591Z,28.47
2023-01-20T14:11:21.116Z,28.48
2023-01-20T14:14:58.790Z,28.49
2023-01-20T14:18:27.554Z,28.41
2023-01-20T14:21:39.507Z,28.33
2023-01-20T14:25:08.519Z,28.19
2023-01-20T14:27:43.347Z,28.37
2023-01-20T14:31:18.336Z,28.32
2023-01-20T14:34:27.312Z,28.31
2023-01-20T14:38:11.262Z,28.29
2023-01-20T14:41:40.192Z,28.25
2023-01-20T14:45:10.670Z,28.25
2023-01-20T14:48:40.552Z,28.17
2023-01-20T14:52:09.316Z,28.15
2023-01-20T14:55:37.935Z,28.14
2023-01-20T14:59:09.510Z,28.08
2023-01-20T15:01:53.527Z,28.05
2023-01-20T15:04:23.722Z,28.04
2023-01-20T15:06:59.809Z,28.06
2023-01-20T15:10:37.305Z,28.08
2023-01-20T15:14:05.940Z,28.02
2023-01-20T15:17:34.875Z,28.03
2023-01-20T15:21:16.963Z,28.01
2023-01-20T15:24:49.064Z,27.99
2023-01-20T15:28:20.538Z,27.95
2023-01-20T15:31:49.396Z,27.94
2023-01-20T15:35:18.043Z,27.70
2023-01-20T15:37:49.277Z,27.85
2023-01-20T15:41:18.362Z,27.88
2023-01-20T15:44:47.107Z,27.87
2023-01-20T15:48:15.788Z,27.82
2023-01-20T15:51:44.598Z,27.82
2023-01-20T15:55:13.269Z,27.81
2023-01-20T15:58:41.938Z,27.75
2023-01-20T16:02:13.538Z,27.57
2023-01-20T16:05:42.277Z,27.67
2023-01-20T16:09:17.010Z,27.53
2023-01-20T16:12:26.004Z,27.68
2023-01-20T16:15:54.626Z,27.66
2023-01-20T16:19:23.308Z,27.62
2023-01-20T16:22:25.936Z,27.59
2023-01-20T16:24:55.601Z,27.57
2023-01-20T16:27:25.310Z,27.58
2023-01-20T16:30:54.131Z,27.55
2023-01-20T16:34:22.807Z,27.51
2023-01-20T16:37:51.427Z,27.38
2023-01-20T16:41:20.069Z,27.39
2023-01-20T16:44:48.724Z,27.46
2023-01-20T16:47:39.341Z,27.44
2023-01-20T16:51:08.113Z,27.44
2023-01-20T16:53:58.420Z,27.43
2023-01-20T16:57:27.519Z,27.40
2023-01-20T17:00:56.277Z,27.37
2023-01-20T17:29:07.884Z,27.11
2023-01-20T17:31:38.245Z,27.10
2023-01-20T17:34:09.147Z,27.10
2023-01-20T17:36:40.219Z,27.10
2023-01-20T17:40:08.903Z,27.11
2023-01-20T17:43:37.511Z,27.14
2023-01-20T17:46:58.416Z,27.13
2023-01-20T17:50:27.048Z,26.91
2023-01-20T17:53:57.291Z,27.12
2023-01-20T17:57:27.137Z,27.09
2023-01-20T18:00:17.269Z,27.07
2023-01-20T18:02:47.075Z,27.06
2023-01-20T18:05:16.760Z,27.05
2023-01-20T18:07:46.397Z,27.05
2023-01-20T18:10:16.314Z,27.04
2023-01-20T18:12:46.156Z,27.03
2023-01-20T18:15:15.839Z,26.98
2023-01-20T18:17:45.445Z,26.99
2023-01-20T18:21:14.408Z,26.96
2023-01-20T18:24:43.140Z,26.96
2023-01-20T18:28:12.049Z,26.93
2023-01-20T18:31:40.742Z,26.86
2023-01-20T18:34:12.877Z,26.83
2023-01-20T18:37:41.545Z,26.84
2023-01-20T18:41:10.410Z,26.83
2023-01-20T18:44:39.078Z,26.78
2023-01-20T18:48:07.714Z,26.76
2023-01-20T18:51:39.246Z,26.76
2023-01-20T18:55:07.915Z,26.76
2023-01-20T18:58:36.527Z,26.73
2023-01-20T19:02:05.231Z,26.74
2023-01-20T19:05:33.861Z,26.70
2023-01-20T19:08:37.758Z,26.70
2023-01-20T19:12:06.383Z,26.69
2023-01-20T19:15:35.058Z,26.65
2023-01-20T19:19:03.784Z,26.64
2023-01-20T19:22:32.646Z,26.61
2023-01-20T19:26:01.339Z,26.63
2023-01-20T19:52:40.677Z,26.39
2023-01-20T19:55:11.865Z,26.39
2023-01-20T19:57:41.428Z,26.41
2023-01-20T20:00:11.686Z,26.40
2023-01-20T20:02:42.733Z,26.42
2023-01-20T20:05:12.752Z,26.40
2023-01-20T20:07:42.728Z,26.45
2023-01-20T20:10:12.815Z,26.30
2023-01-20T20:12:42.406Z,26.21
2023-01-20T20:15:12.473Z,26.21
2023-01-20T20:17:42.011Z,26.43
2023-01-20T20:20:12.345Z,26.41
2023-01-20T20:23:40.945Z,26.43
2023-01-20T20:27:09.712Z,26.42
2023-01-20T20:30:38.367Z,26.40
2023-01-20T20:34:07.074Z,26.39
2023-01-20T20:37:35.705Z,26.36
2023-01-20T20:41:04.508Z,26.36
2023-01-20T20:44:33.197Z,26.33
2023-01-20T20:48:01.856Z,26.31
2023-01-20T20:51:30.533Z,26.31
2023-01-20T20:54:22.184Z,26.29
2023-01-20T20:57:50.854Z,26.29
2023-01-20T21:01:19.729Z,26.27
2023-01-20T21:04:48.411Z,26.27
2023-01-20T21:08:17.078Z,26.25
2023-01-20T21:11:45.681Z,26.07
2023-01-20T21:15:14.596Z,26.22
2023-01-20T21:18:43.234Z,26.21
2023-01-20T21:22:11.899Z,26.17
2023-01-20T21:25:40.574Z,26.17
2023-01-20T21:29:09.253Z,26.16
2023-01-20T21:32:37.879Z,26.13
2023-01-20T21:36:06.627Z,26.15
2023-01-20T21:39:35.244Z,26.09
2023-01-20T21:43:02.292Z,26.12
2023-01-20T21:46:38.947Z,26.08
2023-01-20T21:50:06.113Z,26.07
2023-01-20T22:02:00.488Z,26.05
2023-01-20T22:04:49.848Z,25.99
2023-01-20T22:08:18.490Z,25.96
2023-01-20T22:11:47.212Z,25.98
2023-01-20T22:15:16.328Z,25.96
2023-01-20T22:18:44.918Z,25.82
2023-01-20T22:22:15.222Z,25.92
2023-01-20T22:25:43.960Z,25.93
2023-01-20T22:29:12.602Z,25.93
2023-01-20T22:32:41.193Z,25.76
2023-01-20T22:36:09.945Z,25.90
2023-01-20T22:39:38.533Z,25.88
2023-01-20T22:43:07.189Z,25.89
2023-01-20T22:46:41.441Z,25.87
2023-01-20T22:50:10.141Z,25.86
2023-01-20T22:53:38.786Z,25.83
2023-01-20T22:57:07.589Z,25.65
2023-01-20T23:00:36.655Z,25.77
2023-01-20T23:04:05.508Z,25.76
2023-01-20T23:07:34.218Z,25.79
2023-01-20T23:11:08.922Z,25.76
2023-01-20T23:14:37.544Z,25.74
2023-01-20T23:18:06.536Z,25.45
2023-01-20T23:21:35.134Z,25.70
2023-01-20T23:25:03.777Z,25.70
2023-01-20T23:28:32.382Z,25.65
2023-01-20T23:32:01.124Z,25.64
2023-01-20T23:35:29.872Z,25.65
2023-01-20T23:38:58.504Z,25.65
2023-01-20T23:42:27.229Z,25.70
2023-01-20T23:45:56.008Z,25.70
2023-01-20T23:49:24.720Z,25.71
2023-01-20T23:52:53.519Z,25.65
2023-01-20T23:55:23.118Z,25.65
2023-01-20T23:57:52.738Z,25.48
